.
WxDataArchive / Data Records for 2008-06-30
2008-06-29 June 2008 2008-07-01

Data Records for Monday, 30 June 2008

Time	Temp	Chill	HIndex	Humid	Dewpt	 Wind 	HiWind	WindDir	Rain 	Barom 
-----	----	-----	------	-----	-----	------	------	-------	-----	----- 
00:00	62.6	62.6	62.6	87	58.7	2	4	270	0.00	29.768 
00:05	62.4	62.4	62.4	87	58.5	1	4	292	0.00	29.769 
00:10	62.3	62.3	62.3	87	58.4	1	3	292	0.00	29.769 
00:15	62.1	62.1	62.1	86	57.9	1	4	292	0.00	29.769 
00:20	62.1	62.1	62.1	86	57.9	1	2	292	0.00	29.769 
00:25	62.3	62.3	62.3	86	58.1	0	2	292	0.00	29.769 
00:30	62.1	62.1	62.1	86	57.9	0	1	292	0.00	29.766 
00:35	62.1	62.1	62.1	86	57.9	0	1	292	0.00	29.765 
00:40	62.1	62.1	62.1	86	57.9	1	4	292	0.00	29.763 
00:45	62.1	62.1	62.1	85	57.5	1	4	248	0.00	29.759 
00:50	62.0	62.0	62.0	84	57.1	1	2	292	0.00	29.756 
00:55	61.8	61.8	61.8	84	56.9	0	2	292	0.00	29.757 
01:00	61.6	61.6	61.6	84	56.7	1	3	292	0.00	29.757 
01:05	61.5	61.5	61.5	84	56.6	0	2	292	0.00	29.760 
01:10	61.5	61.5	61.5	84	56.6	1	3	292	0.00	29.763 
01:15	61.5	61.5	61.5	84	56.6	1	3	315	0.00	29.765 
01:20	61.3	61.3	61.3	84	56.4	1	3	292	0.00	29.766 
01:25	61.2	61.2	61.2	83	56.0	1	4	292	0.00	29.762 
01:30	61.0	61.0	61.0	82	55.5	2	4	292	0.00	29.763 
01:35	61.0	61.0	61.0	83	55.8	1	3	315	0.00	29.761 
01:40	61.0	61.0	61.0	83	55.8	1	3	270	0.00	29.760 
01:45	60.9	60.9	60.9	82	55.4	2	5	292	0.00	29.761 
01:50	60.7	60.7	60.7	81	54.8	2	5	270	0.00	29.759 
01:55	60.7	60.7	60.7	81	54.8	1	3	292	0.00	29.758 
02:00	60.5	60.5	60.5	80	54.3	1	5	315	0.00	29.759 
02:05	60.4	60.4	60.4	79	53.9	2	4	315	0.00	29.758 
02:10	60.4	60.4	60.4	78	53.5	1	4	270	0.00	29.760 
02:15	60.4	60.4	60.4	79	53.9	1	4	270	0.00	29.758 
02:20	60.4	60.4	60.4	79	53.9	0	2	315	0.00	29.757 
02:25	60.4	60.4	60.4	79	53.9	0	2	315	0.00	29.758 
02:30	60.4	60.4	60.4	80	54.2	1	2	315	0.00	29.757 
02:35	60.4	60.4	60.4	80	54.2	0	3	315	0.00	29.758 
02:40	60.2	60.2	60.2	81	54.3	1	3	315	0.00	29.757 
02:45	60.2	60.2	60.2	81	54.3	0	2	248	0.00	29.758 
02:50	60.2	60.2	60.2	82	54.7	1	3	270	0.00	29.758 
02:55	60.2	60.2	60.2	82	54.7	1	4	315	0.00	29.757 
03:00	60.2	60.2	60.2	83	55.0	1	3	315	0.00	29.757 
03:05	60.2	60.2	60.2	83	55.0	1	2	315	0.00	29.756 
03:10	60.2	60.2	60.2	84	55.3	1	5	292	0.00	29.757 
03:15	60.1	60.1	60.1	84	55.2	0	4	270	0.00	29.756 
03:20	60.2	60.2	60.2	84	55.3	0	2	292	0.00	29.757 
03:25	60.2	60.2	60.2	84	55.3	1	2	292	0.00	29.760 
03:30	60.2	60.2	60.2	84	55.3	0	2	292	0.00	29.764 
03:35	60.2	60.2	60.2	84	55.3	1	3	292	0.00	29.765 
03:40	60.2	60.2	60.2	84	55.3	1	3	270	0.00	29.764 
03:45	60.2	60.2	60.2	84	55.3	1	3	270	0.00	29.766 
03:50	60.2	60.2	60.2	84	55.3	1	3	270	0.00	29.764 
03:55	60.2	60.2	60.2	84	55.3	1	3	270	0.00	29.763 
04:00	60.2	60.2	60.2	84	55.3	0	2	315	0.00	29.761 
04:05	60.1	60.1	60.1	83	54.9	1	4	315	0.00	29.761 
04:10	60.1	60.1	60.1	83	54.9	1	5	315	0.00	29.762 
04:15	60.1	60.1	60.1	83	54.9	1	3	270	0.00	29.766 
04:20	60.1	60.1	60.1	83	54.9	1	4	270	0.00	29.767 
04:25	60.1	60.1	60.1	83	54.9	1	3	292	0.00	29.768 
04:30	59.9	59.9	59.9	83	54.7	2	7	292	0.00	29.769 
04:35	59.9	59.9	59.9	83	54.7	0	3	270	0.00	29.769 
04:40	59.6	59.6	59.6	82	54.1	2	5	292	0.00	29.770 
04:45	59.6	59.6	59.6	82	54.1	1	3	315	0.00	29.770 
04:50	59.5	59.5	59.5	82	54.0	0	2	315	0.00	29.770 
04:55	59.3	59.3	59.3	83	54.1	0	2	315	0.00	29.770 
05:00	59.2	59.2	59.2	83	54.0	0	2	315	0.00	29.771 
05:05	59.0	59.0	59.0	83	53.8	0	2	315	0.00	29.773 
05:10	59.0	59.0	59.0	83	53.8	0	3	315	0.00	29.773 
05:15	59.0	59.0	59.0	83	53.8	1	3	315	0.00	29.775 
05:20	58.9	58.9	58.9	83	53.7	1	3	270	0.00	29.775 
05:25	58.9	58.9	58.9	83	53.7	0	2	315	0.00	29.776 
05:30	58.9	58.9	58.9	83	53.7	0	2	315	0.00	29.778 
05:35	58.9	58.9	58.9	83	53.7	0	2	315	0.00	29.779 
05:40	59.0	59.0	59.0	83	53.8	0	2	315	0.00	29.781 
05:45	59.0	59.0	59.0	83	53.8	0	1	315	0.00	29.784 
05:50	59.2	59.2	59.2	83	54.0	1	3	315	0.00	29.786 
05:55	59.2	59.2	59.2	82	53.7	0	2	315	0.00	29.787 
06:00	59.3	59.3	59.3	82	53.8	0	2	315	0.00	29.787 
06:05	59.3	59.3	59.3	82	53.8	1	3	315	0.00	29.789 
06:10	59.5	59.5	59.5	82	54.0	1	4	292	0.00	29.790 
06:15	59.5	59.5	59.5	82	54.0	1	3	270	0.00	29.790 
06:20	59.5	59.5	59.5	82	54.0	1	2	270	0.00	29.790 
06:25	59.5	59.5	59.5	82	54.0	0	2	270	0.00	29.792 
06:30	59.6	59.6	59.6	82	54.1	1	2	270	0.00	29.793 
06:35	59.6	59.6	59.6	81	53.8	1	3	315	0.00	29.793 
06:40	59.8	59.8	59.8	81	54.0	1	3	292	0.00	29.797 
06:45	59.9	59.9	59.9	81	54.1	0	2	315	0.00	29.799 
06:50	59.9	59.9	59.9	81	54.1	1	5	315	0.00	29.801 
06:55	59.9	59.9	59.9	81	54.1	0	1	270	0.00	29.803 
07:00	59.9	59.9	59.9	81	54.1	1	3	315	0.00	29.803 
07:05	60.1	60.1	60.1	81	54.2	0	2	315	0.00	29.809 
07:10	60.2	60.2	60.2	80	54.0	0	2	315	0.00	29.810 
07:15	60.2	60.2	60.2	80	54.0	0	2	315	0.00	29.811 
07:20	60.2	60.2	60.2	79	53.7	0	2	315	0.00	29.813 
07:25	60.4	60.4	60.4	79	53.9	0	2	315	0.00	29.817 
07:30	60.4	60.4	60.4	79	53.9	0	3	315	0.00	29.819 
07:35	60.5	60.5	60.5	79	54.0	0	2	315	0.00	29.820 
07:40	60.7	60.7	60.7	78	53.8	1	2	315	0.00	29.823 
07:45	60.7	60.7	60.7	77	53.4	1	4	292	0.00	29.824 
07:50	60.7	60.7	60.7	77	53.4	1	4	270	0.00	29.824 
07:55	60.7	60.7	60.7	77	53.4	1	5	338	0.00	29.825 
08:00	60.7	60.7	60.7	77	53.4	0	2	68	0.00	29.826 
08:05	60.5	60.5	60.5	77	53.2	0	3	292	0.00	29.830 
08:10	60.5	60.5	60.5	77	53.2	0	2	338	0.00	29.833 
08:15	60.5	60.5	60.5	78	53.6	0	2	338	0.00	29.837 
08:20	60.5	60.5	60.5	77	53.2	1	2	338	0.00	29.838 
08:25	60.7	60.7	60.7	77	53.4	0	1	338	0.00	29.840 
08:30	61.2	61.2	61.2	76	53.6	1	2	338	0.00	29.840 
08:35	61.8	61.8	61.8	76	54.1	0	2	338	0.00	29.841 
08:40	62.3	62.3	62.3	73	53.5	1	3	315	0.00	29.840 
08:45	62.4	62.4	62.4	72	53.2	1	6	315	0.00	29.843 
08:50	62.9	62.9	62.9	69	52.6	2	7	292	0.00	29.844 
08:55	62.9	62.9	62.9	69	52.6	2	4	338	0.00	29.844 
09:00	63.1	63.1	63.1	68	52.4	2	5	292	0.00	29.850 
09:05	63.1	63.1	63.1	68	52.4	1	3	22	0.00	29.852 
09:10	63.7	63.7	63.7	69	53.3	0	2	0	0.00	29.853 
09:15	64.3	64.3	64.3	66	52.7	1	3	315	0.00	29.851 
09:20	64.7	64.7	64.7	67	53.5	1	7	45	0.00	29.852 
09:25	65.2	65.2	65.2	65	53.1	1	3	248	0.00	29.853 
09:30	65.5	65.5	65.5	65	53.4	2	4	0	0.00	29.854 
09:35	65.3	65.3	65.3	63	52.4	2	4	292	0.00	29.855 
09:40	65.6	65.6	65.6	62	52.2	1	5	292	0.00	29.853 
09:45	65.8	65.8	65.8	65	53.7	1	4	292	0.00	29.853 
09:50	66.3	66.3	66.3	61	52.4	1	4	292	0.00	29.854 
09:55	66.9	66.9	66.9	63	53.9	1	5	338	0.00	29.855 
10:00	67.8	67.8	67.8	59	52.9	1	4	315	0.00	29.854 
10:05	67.9	67.9	67.9	59	53.0	2	5	292	0.00	29.859 
10:10	67.6	67.6	67.6	58	52.3	3	11	292	0.00	29.863 
10:15	67.8	67.8	67.8	57	52.0	2	6	0	0.00	29.862 
10:20	67.9	67.9	67.9	57	52.1	2	6	338	0.00	29.864 
10:25	68.6	68.6	68.6	59	53.7	1	3	292	0.00	29.862 
10:30	69.3	69.3	69.3	57	53.4	1	5	225	0.00	29.861 
10:35	69.3	69.3	69.3	56	52.9	2	5	22	0.00	29.864 
10:40	68.9	68.9	68.9	56	52.5	2	6	338	0.00	29.865 
10:45	69.3	69.3	69.3	58	53.9	2	4	292	0.00	29.866 
10:50	69.6	69.6	69.6	56	53.2	2	5	292	0.00	29.867 
10:55	70.3	70.3	70.3	58	54.8	1	5	270	0.00	29.867 
11:00	70.1	70.1	70.1	53	52.2	3	6	315	0.00	29.867 
11:05	70.1	70.1	70.1	54	52.7	2	7	315	0.00	29.867 
11:10	70.1	70.1	70.1	54	52.7	2	6	338	0.00	29.867 
11:15	69.9	69.9	69.9	54	52.5	2	5	338	0.00	29.869 
11:20	70.3	70.3	70.3	51	51.3	2	5	270	0.00	29.872 
11:25	70.4	70.4	70.4	52	51.9	2	5	292	0.00	29.873 
11:30	70.6	70.6	70.6	51	51.6	2	6	315	0.00	29.880 
11:35	70.9	70.9	70.9	53	52.9	2	5	22	0.00	29.874 
11:40	71.3	71.3	71.3	54	53.8	1	7	0	0.00	29.871 
11:45	71.5	71.5	71.5	49	51.3	2	6	0	0.00	29.873 
11:50	71.5	71.5	71.5	54	54.0	1	5	292	0.00	29.874 
11:55	72.0	72.0	72.0	52	53.4	2	6	0	0.00	29.874 
12:00	71.5	71.5	71.5	48	50.8	2	6	292	0.00	29.876 
12:05	71.3	71.3	71.3	49	51.1	2	7	0	0.00	29.879 
12:10	71.5	71.5	71.5	51	52.4	2	12	292	0.00	29.880 
12:15	72.0	72.0	72.0	49	51.8	2	6	270	0.00	29.877 
12:20	72.3	72.3	72.3	49	52.1	2	6	292	0.00	29.875 
12:25	73.2	73.2	73.2	50	53.4	1	2	292	0.00	29.874 
12:30	73.3	73.3	73.3	52	54.6	1	3	315	0.00	29.872 
12:35	72.8	72.8	72.8	50	53.1	1	7	338	0.00	29.875 
12:40	72.3	72.3	72.3	46	50.3	2	4	292	0.00	29.873 
12:45	72.5	72.5	72.5	50	52.8	2	4	292	0.00	29.875 
12:50	72.5	72.5	72.5	47	51.1	3	9	292	0.00	29.872 
12:55	72.7	72.7	72.7	48	51.9	2	4	315	0.00	29.875 
13:00	72.8	72.8	72.8	45	50.2	2	7	315	0.00	29.877 
13:05	73.0	73.0	73.0	46	51.0	2	6	292	0.00	29.880 
13:10	72.8	72.8	72.8	42	48.4	2	7	292	0.00	29.879 
13:15	72.5	72.5	72.5	46	50.5	1	6	292	0.00	29.880 
13:20	72.1	72.1	72.1	46	50.2	1	4	315	0.00	29.882 
13:25	72.3	72.3	72.3	46	50.3	2	9	292	0.00	29.882 
13:30	72.1	72.1	72.1	47	50.7	1	5	315	0.00	29.882 
13:35	72.3	72.3	72.3	46	50.3	2	13	315	0.00	29.880 
13:40	73.2	73.2	73.2	47	51.7	2	10	292	0.00	29.881 
13:45	73.9	73.9	73.9	46	51.8	1	3	315	0.00	29.880 
13:50	73.3	73.3	73.3	45	50.7	2	6	0	0.00	29.881 
13:55	73.5	73.5	73.5	44	50.2	2	4	315	0.00	29.880 
14:00	73.2	73.2	73.2	46	51.2	2	6	315	0.00	29.881 
14:05	73.0	73.0	73.0	47	51.6	2	5	315	0.00	29.877 
14:10	73.0	73.0	73.0	48	52.1	1	4	22	0.00	29.872 
14:15	73.5	73.5	73.5	50	53.7	1	3	270	0.00	29.869 
14:20	74.0	74.0	74.0	46	51.9	1	3	315	0.00	29.868 
14:25	74.2	74.2	74.2	49	53.8	1	4	338	0.00	29.866 
14:30	74.0	74.0	74.0	42	49.4	2	5	0	0.00	29.868 
14:35	74.2	74.2	74.2	46	52.1	1	5	292	0.00	29.868 
14:40	74.4	74.4	74.4	41	49.1	2	7	315	0.00	29.868 
14:45	74.7	74.7	74.7	40	48.8	1	5	292	0.00	29.870 
14:50	75.1	75.1	77.6	43	51.1	1	4	292	0.00	29.873 
14:55	74.6	74.6	74.6	39	48.0	2	6	338	0.00	29.875 
15:00	74.4	74.4	74.4	41	49.1	1	4	45	0.00	29.873 
15:05	74.4	74.4	74.4	39	47.8	2	5	292	0.00	29.872 
15:10	73.7	73.7	73.7	41	48.5	1	4	338	0.00	29.878 
15:15	73.9	73.9	73.9	43	50.0	1	7	292	0.00	29.874 
15:20	74.6	74.6	74.6	42	50.0	2	9	315	0.00	29.876 
15:25	74.7	74.7	74.7	42	50.1	1	4	315	0.00	29.877 
15:30	74.9	74.9	74.9	44	51.5	2	6	338	0.00	29.875 
15:35	75.3	75.3	77.6	40	49.3	1	4	338	0.00	29.873 
15:40	75.3	75.3	77.7	43	51.2	1	7	270	0.00	29.871 
15:45	74.6	74.6	74.6	42	50.0	1	6	0	0.00	29.874 
15:50	73.7	73.7	73.7	43	49.8	1	6	45	0.00	29.873 
15:55	73.2	73.2	73.2	44	50.0	0	3	338	0.00	29.878 
16:00	73.7	73.7	73.7	46	51.6	1	3	0	0.00	29.878 
16:05	74.7	74.7	74.7	44	51.3	2	5	315	0.00	29.879 
16:10	75.6	75.6	77.7	42	50.9	1	4	315	0.00	29.877 
16:15	75.1	75.1	77.6	43	51.1	1	4	315	0.00	29.880 
16:20	74.0	74.0	74.0	44	50.7	1	3	270	0.00	29.882 
16:25	74.4	74.4	74.4	44	51.0	1	4	315	0.00	29.882 
16:30	75.3	75.3	77.7	45	52.5	1	2	315	0.00	29.879 
16:35	75.4	75.4	77.7	43	51.3	2	5	292	0.00	29.880 
16:40	75.1	75.1	77.6	41	49.8	1	4	315	0.00	29.880 
16:45	75.3	75.3	77.6	41	50.0	1	5	315	0.00	29.881 
16:50	75.4	75.4	77.7	43	51.3	1	3	315	0.00	29.881 
16:55	75.6	75.6	77.7	42	50.9	1	3	315	0.00	29.882 
17:00	75.3	75.3	77.6	41	50.0	2	6	292	0.00	29.882 
17:05	74.2	74.2	74.2	42	49.6	1	5	315	0.00	29.883 
17:10	74.4	74.4	74.4	44	51.0	1	3	292	0.00	29.883 
17:15	74.2	74.2	74.2	40	48.3	2	5	292	0.00	29.883 
17:20	74.4	74.4	74.4	42	49.8	1	6	292	0.00	29.882 
17:25	74.6	74.6	74.6	42	50.0	2	7	292	0.00	29.882 
17:30	74.7	74.7	74.7	41	49.4	1	3	292	0.00	29.882 
17:35	74.6	74.6	74.6	40	48.7	2	5	292	0.00	29.881 
17:40	74.2	74.2	74.2	42	49.6	1	4	315	0.00	29.883 
17:45	74.2	74.2	74.2	41	49.0	1	4	315	0.00	29.883 
17:50	74.2	74.2	74.2	40	48.3	2	5	315	0.00	29.883 
17:55	74.0	74.0	74.0	41	48.8	2	4	315	0.00	29.885 
18:00	73.9	73.9	73.9	40	48.0	2	10	315	0.00	29.886 
18:05	73.7	73.7	73.7	40	47.9	2	6	292	0.00	29.887 
18:10	73.9	73.9	73.9	40	48.0	1	4	270	0.00	29.887 
18:15	73.7	73.7	73.7	40	47.9	1	5	315	0.00	29.891 
18:20	73.5	73.5	73.5	40	47.7	2	5	270	0.00	29.892 
18:25	73.3	73.3	73.3	41	48.2	1	3	292	0.00	29.895 
18:30	73.2	73.2	73.2	39	46.7	2	5	315	0.00	29.898 
18:35	73.0	73.0	73.0	40	47.2	1	3	315	0.00	29.898 
18:40	73.0	73.0	73.0	39	46.6	2	4	292	0.00	29.899 
18:45	72.8	72.8	72.8	40	47.1	1	4	270	0.00	29.900 
18:50	72.7	72.7	72.7	41	47.6	1	4	270	0.00	29.900 
18:55	72.5	72.5	72.5	40	46.8	2	3	270	0.00	29.900 
19:00	72.3	72.3	72.3	40	46.6	1	4	315	0.00	29.902 
19:05	72.1	72.1	72.1	40	46.4	1	3	315	0.00	29.904 
19:10	72.0	72.0	72.0	40	46.3	1	4	315	0.00	29.905 
19:15	71.8	71.8	71.8	41	46.8	1	3	315	0.00	29.907 
19:20	71.5	71.5	71.5	42	47.2	1	3	292	0.00	29.908 
19:25	71.3	71.3	71.3	42	47.0	1	2	292	0.00	29.908 
19:30	71.1	71.1	71.1	43	47.5	1	3	315	0.00	29.910 
19:35	70.8	70.8	70.8	43	47.2	1	4	315	0.00	29.910 
19:40	70.6	70.6	70.6	44	47.6	0	2	338	0.00	29.912 
19:45	70.3	70.3	70.3	45	47.9	0	3	315	0.00	29.913 
19:50	69.9	69.9	69.9	45	47.6	0	1	315	0.00	29.914 
19:55	69.6	69.6	69.6	45	47.3	0	1	315	0.00	29.914 
20:00	69.4	69.4	69.4	46	47.7	0	1	315	0.00	29.914 
20:05	69.1	69.1	69.1	46	47.4	0	1	315	0.00	29.913 
20:10	68.9	68.9	68.9	46	47.3	0	1	315	0.00	29.914 
20:15	68.6	68.6	68.6	46	47.0	0	1	315	0.00	29.914 
20:20	68.4	68.4	68.4	46	46.8	0	1	315	0.00	29.916 
20:25	68.1	68.1	68.1	46	46.5	0	1	315	0.00	29.916 
20:30	67.8	67.8	67.8	47	46.8	0	1	315	0.00	29.917 
20:35	67.6	67.6	67.6	47	46.6	0	1	315	0.00	29.917 
20:40	67.3	67.3	67.3	47	46.4	0	1	315	0.00	29.918 
20:45	67.1	67.1	67.1	48	46.7	0	0	---	0.00	29.920 
20:50	66.8	66.8	66.8	49	47.0	0	0	---	0.00	29.922 
20:55	66.4	66.4	66.4	50	47.2	0	0	---	0.00	29.924 
21:00	66.1	66.1	66.1	51	47.4	0	0	---	0.00	29.931 
21:05	65.8	65.8	65.8	51	47.2	0	0	---	0.00	29.927 
21:10	65.6	65.6	65.6	52	47.5	0	1	315	0.00	29.929 
21:15	65.5	65.5	65.5	51	46.9	0	0	---	0.00	29.930 
21:20	65.3	65.3	65.3	51	46.7	0	1	315	0.00	29.932 
21:25	65.2	65.2	65.2	52	47.1	0	1	315	0.00	29.936 
21:30	65.0	65.0	65.0	52	46.9	0	1	315	0.00	29.938 
21:35	64.7	64.7	64.7	53	47.2	0	0	---	0.00	29.939 
21:40	64.5	64.5	64.5	52	46.5	0	1	315	0.00	29.938 
21:45	64.3	64.3	64.3	53	46.8	0	0	---	0.00	29.939 
21:50	64.2	64.2	64.2	53	46.7	0	1	315	0.00	29.940 
21:55	64.0	64.0	64.0	53	46.5	0	0	---	0.00	29.941 
22:00	63.9	63.9	63.9	53	46.4	0	1	315	0.00	29.941 
22:05	63.9	63.9	63.9	53	46.4	0	1	315	0.00	29.940 
22:10	63.9	63.9	63.9	53	46.4	0	1	315	0.00	29.941 
22:15	63.7	63.7	63.7	53	46.2	0	1	315	0.00	29.940 
22:20	63.5	63.5	63.5	54	46.6	0	1	315	0.00	29.940 
22:25	63.4	63.4	63.4	54	46.5	0	1	315	0.00	29.940 
22:30	63.2	63.2	63.2	54	46.3	0	1	315	0.00	29.942 
22:35	63.2	63.2	63.2	55	46.8	0	1	315	0.00	29.945 
22:40	62.9	62.9	62.9	56	47.0	0	1	315	0.00	29.946 
22:45	62.6	62.6	62.6	56	46.7	0	1	315	0.00	29.945 
22:50	62.4	62.4	62.4	56	46.5	0	1	315	0.00	29.944 
22:55	62.4	62.4	62.4	56	46.5	0	1	315	0.00	29.944 
23:00	62.4	62.4	62.4	57	47.0	0	1	315	0.00	29.944 
23:05	62.1	62.1	62.1	57	46.7	0	1	315	0.00	29.943 
23:10	62.0	62.0	62.0	58	47.0	0	1	315	0.00	29.943 
23:15	61.8	61.8	61.8	58	46.9	0	1	315	0.00	29.943 
23:20	61.6	61.6	61.6	59	47.1	0	0	---	0.00	29.944 
23:25	61.5	61.5	61.5	59	47.0	0	1	315	0.00	29.945 
23:30	61.3	61.3	61.3	60	47.3	0	0	---	0.00	29.947 
23:35	61.0	61.0	61.0	60	47.0	0	1	315	0.00	29.947 
23:40	61.0	61.0	61.0	60	47.0	0	1	315	0.00	29.948 
23:45	60.9	60.9	60.9	60	46.9	0	0	---	0.00	29.948 
23:50	60.9	60.9	60.9	60	46.9	0	1	315	0.00	29.948 
23:55	60.7	60.7	60.7	61	47.2	0	1	315	0.00	29.948 

CoCoRaHS
IN-AL-39
A2 Web Hosting
Creative Commons License
GoDaddy
Look for:

loaded 2017-12-12 02:02:54 • last modified 2010-11-18 10:43:29
Privacy PolicyDisclaimer
• wx.awcolley.com is powered by PmWiki v.2002016 •
• all content (unless otherwise noted) © 2017 A W Colley